Time;durP1;ratioP1;P1;durP2;ratioP2;P2;SDS_P1;SDS_P2;PMS_P1;PMS_P2;Temp;Humidity;BMP_temperature;BMP_pressure;BME280_temperature;BME280_humidity;BME280_pressure;Samples;Min_cycle;Max_cycle;Signal;HPM_P1;HPM_P2
2021/09/01 00:05:33;;;;;;;;;26.33;18.33;;;;;18.96;57.98;102328.78;5103292;27;45514;-89
2021/09/01 00:08:01;;;;;;;;;20.33;16.00;;;;;18.92;57.67;102326.97;5088285;27;45385;-90
2021/09/01 00:10:27;;;;;;;;;27.33;20.33;;;;;18.91;57.96;102333.19;5084668;27;47583;-89
2021/09/01 00:12:55;;;;;;;;;21.00;18.00;;;;;18.91;58.09;102328.72;5104840;27;45460;-91
2021/09/01 00:22:15;;;;;;;;;15.67;15.33;;;;;18.81;58.33;102332.19;5104358;27;45792;-90
2021/09/01 00:41:30;;;;;;;;;17.00;15.33;;;;;18.55;58.86;102325.75;5110990;27;45279;-90
2021/09/01 00:43:58;;;;;;;;;20.00;18.67;;;;;18.70;59.24;102356.97;5111054;27;45346;-89
2021/09/01 00:46:23;;;;;;;;;23.33;20.67;;;;;18.70;58.91;102356.97;5114350;27;47858;-89
2021/09/01 00:48:53;;;;;;;;;20.00;19.33;;;;;18.58;59.12;102333.78;5114764;27;45361;-89
2021/09/01 00:51:19;;;;;;;;;24.33;19.33;;;;;18.63;59.37;102347.16;5086289;27;45363;-90
2021/09/01 00:53:46;;;;;;;;;18.00;18.00;;;;;18.58;59.35;102346.19;5103161;27;45798;-89
2021/09/01 00:56:21;;;;;;;;;24.33;20.33;;;;;18.59;59.58;102343.53;5100921;27;47155;-90
2021/09/01 00:58:47;;;;;;;;;17.00;16.33;;;;;18.51;59.64;102339.91;5102414;27;45478;-90
2021/09/01 01:01:15;;;;;;;;;24.67;21.33;;;;;18.48;59.49;102327.50;5102383;27;45268;-90
2021/09/01 01:03:50;;;;;;;;;18.33;18.33;;;;;18.56;59.53;102351.53;5103344;27;45487;-90
2021/09/01 01:06:22;;;;;;;;;21.25;17.75;;;;;18.52;59.70;102341.72;5102892;27;46276;-89
2021/09/01 01:08:48;;;;;;;;;23.00;19.33;;;;;18.47;59.72;102338.09;5109295;27;45423;-90
2021/09/01 01:11:14;;;;;;;;;21.33;17.67;;;;;18.42;59.84;102337.19;5111728;27;45492;-89
2021/09/01 01:13:43;;;;;;;;;24.00;21.67;;;;;18.43;59.62;102337.19;5109442;27;44898;-91
2021/09/01 01:16:11;;;;;;;;;21.33;19.67;;;;;18.48;59.57;102353.22;5110346;27;47555;-90
2021/09/01 01:18:40;;;;;;;;;20.67;20.00;;;;;18.33;59.60;102322.00;5115242;27;45213;-90
2021/09/01 01:21:06;;;;;;;;;22.33;20.00;;;;;18.37;59.69;102335.34;5115207;27;44799;-89
2021/09/01 01:23:31;;;;;;;;;23.00;19.33;;;;;18.45;60.05;102354.06;5117297;27;45333;-89
2021/09/01 01:25:57;;;;;;;;;22.67;17.67;;;;;18.25;60.29;102324.59;5120606;27;46921;-89
2021/09/01 01:28:22;;;;;;;;;24.67;22.33;;;;;18.33;59.96;102330.88;5112821;27;45389;-90
2021/09/01 01:30:48;;;;;;;;;30.33;22.33;;;;;18.42;60.18;102350.50;5086245;27;45390;-89
2021/09/01 01:33:14;;;;;;;;;22.00;20.00;;;;;18.34;60.41;102332.66;5103789;27;45434;-90
2021/09/01 01:35:42;;;;;;;;;22.67;19.67;;;;;18.32;60.18;102334.41;5088182;27;47372;-90
2021/09/01 01:38:11;;;;;;;;;21.67;21.00;;;;;18.29;60.42;102326.41;5109309;27;45480;-89
2021/09/01 01:40:37;;;;;;;;;29.00;23.00;;;;;18.25;60.55;102321.91;5119724;27;44724;-89
2021/09/01 01:43:04;;;;;;;;;23.33;18.00;;;;;18.29;60.30;102334.38;5119375;27;45341;-88
2021/09/01 01:45:46;;;;;;;;;22.67;21.67;;;;;18.17;60.48;102327.13;5106060;27;45279;-88
2021/09/01 01:48:14;;;;;;;;;23.67;20.00;;;;;18.28;60.36;102337.91;5112818;27;45506;-89
2021/09/01 01:50:42;;;;;;;;;21.00;20.00;;;;;18.26;60.42;102342.31;5089677;27;45285;-89
2021/09/01 01:53:08;;;;;;;;;26.33;22.33;;;;;18.25;60.92;102337.91;5094665;27;45452;-90
2021/09/01 01:55:34;;;;;;;;;25.75;21.75;;;;;18.13;60.44;102315.53;5110529;27;47048;-88
2021/09/01 01:58:00;;;;;;;;;34.00;26.25;;;;;18.24;60.84;102341.41;5119029;27;45294;-88
2021/09/01 02:00:25;;;;;;;;;23.00;21.00;;;;;18.15;60.91;102332.41;5108150;27;45282;-90
2021/09/01 02:02:51;;;;;;;;;30.00;23.75;;;;;18.22;60.94;102343.16;5102853;27;45443;-90
2021/09/01 02:05:17;;;;;;;;;26.00;22.67;;;;;18.24;60.89;102346.75;5100907;27;45491;-89
2021/09/01 02:07:43;;;;;;;;;29.25;24.50;;;;;18.06;60.84;102325.22;5101271;27;45238;-89
2021/09/01 02:10:09;;;;;;;;;27.25;23.00;;;;;18.20;61.38;102352.91;5083124;27;45461;-89
2021/09/01 02:12:36;;;;;;;;;26.00;24.33;;;;;18.14;61.07;102338.63;5100502;27;45312;-90
2021/09/01 02:15:03;;;;;;;;;28.33;24.67;;;;;18.12;60.79;102335.06;5101523;27;45474;-90
2021/09/01 02:17:29;;;;;;;;;27.33;25.33;;;;;18.02;60.96;102326.06;5117380;27;45592;-89
2021/09/01 02:19:56;;;;;;;;;24.00;22.67;;;;;18.23;61.19;102363.59;5123563;27;45208;-89
2021/09/01 02:22:22;;;;;;;;;28.33;23.33;;;;;18.15;60.97;102350.16;5115385;27;44743;-88
2021/09/01 02:24:49;;;;;;;;;28.67;25.00;;;;;18.16;61.11;102352.84;5103746;27;47735;-90
2021/09/01 02:27:14;;;;;;;;;31.00;24.33;;;;;18.11;61.14;102338.59;5104535;27;45313;-90
2021/09/01 02:29:40;;;;;;;;;26.00;23.67;;;;;18.15;60.88;102353.72;5111234;27;45388;-90
2021/09/01 02:32:07;;;;;;;;;23.33;21.33;;;;;18.24;61.21;102368.94;5118342;27;45290;-89
2021/09/01 02:34:32;;;;;;;;;23.33;22.00;;;;;18.14;61.25;102354.59;5110627;27;47580;-90
2021/09/01 02:36:59;;;;;;;;;24.00;23.67;;;;;18.24;61.12;102362.72;5108877;27;44758;-89
2021/09/01 02:39:25;;;;;;;;;25.67;24.33;;;;;18.07;61.05;102339.41;5089237;27;45293;-89
2021/09/01 02:41:51;;;;;;;;;27.00;24.33;;;;;18.21;61.13;102366.22;5086938;27;45557;-91
2021/09/01 02:44:17;;;;;;;;;26.75;23.75;;;;;18.22;61.19;102364.47;5101821;27;47421;-90
2021/09/01 02:46:43;;;;;;;;;26.50;24.00;;;;;18.09;61.06;102348.31;5100934;27;45447;-90
2021/09/01 02:49:09;;;;;;;;;32.50;26.00;;;;;18.20;61.02;102367.13;5082005;27;45351;-91
2021/09/01 02:51:35;;;;;;;;;26.50;24.00;;;;;18.21;61.28;102368.00;5100512;27;45189;-91
2021/09/01 02:54:01;;;;;;;;;27.33;25.00;;;;;18.17;61.15;102367.97;5081553;27;48001;-91
2021/09/01 02:56:26;;;;;;;;;28.50;23.00;;;;;18.09;60.79;102345.66;5082812;27;45293;-90
2021/09/01 02:58:52;;;;;;;;;26.50;25.00;;;;;18.16;61.39;102359.94;5102669;27;45473;-90
2021/09/01 03:01:17;;;;;;;;;28.75;25.00;;;;;18.03;61.16;102343.81;5085224;27;45438;-92
2021/09/01 03:03:43;;;;;;;;;24.75;20.75;;;;;18.19;61.13;102372.44;5101540;27;46360;-91
2021/09/01 03:06:08;;;;;;;;;31.67;25.33;;;;;18.11;61.02;102356.31;5082087;27;45356;-90
2021/09/01 03:08:34;;;;;;;;;28.67;25.00;;;;;18.06;60.72;102351.81;5081996;27;45504;-90
2021/09/01 03:10:59;;;;;;;;;25.00;23.33;;;;;18.06;60.94;102354.50;5104907;27;45311;-90
2021/09/01 03:13:25;;;;;;;;;28.75;25.50;;;;;18.06;61.08;102346.50;5094039;27;47155;-90
2021/09/01 03:15:50;;;;;;;;;30.00;25.00;;;;;18.01;61.15;102340.25;5110242;27;44762;-90
2021/09/01 03:18:15;;;;;;;;;27.50;24.75;;;;;18.01;61.04;102337.59;5084922;27;45359;-90
2021/09/01 03:20:41;;;;;;;;;29.00;29.00;;;;;18.13;60.90;102355.47;5082174;27;45511;-90
2021/09/01 03:23:07;;;;;;;;;32.50;26.50;;;;;18.04;61.22;102344.72;5081314;27;47395;-90
2021/09/01 03:25:32;;;;;;;;;30.25;25.50;;;;;18.00;61.34;102342.91;5100207;27;45379;-88
2021/09/01 03:27:59;;;;;;;;;31.50;27.25;;;;;18.14;60.73;102365.25;5080951;27;45347;-89
2021/09/01 03:30:26;;;;;;;;;28.67;25.67;;;;;18.09;61.29;102352.75;5100078;27;45267;-89
2021/09/01 03:32:51;;;;;;;;;31.75;27.50;;;;;18.12;61.12;102359.00;5081287;27;45494;-90
2021/09/01 03:35:17;;;;;;;;;25.50;23.50;;;;;18.05;60.93;102341.16;5081086;27;45466;-90
2021/09/01 03:37:43;;;;;;;;;27.75;24.75;;;;;18.14;61.18;102353.69;5081142;27;45766;-88
2021/09/01 03:40:08;;;;;;;;;26.75;25.75;;;;;18.05;60.91;102334.09;5081117;27;45425;-88
2021/09/01 03:42:34;;;;;;;;;29.50;27.25;;;;;18.09;60.91;102347.41;5081328;27;48052;-89
2021/09/01 03:44:59;;;;;;;;;28.75;27.25;;;;;17.93;61.11;102321.53;5080941;27;45351;-89
2021/09/01 03:47:25;;;;;;;;;29.25;25.50;;;;;17.94;60.99;102325.97;5081062;27;45431;-90
2021/09/01 03:49:50;;;;;;;;;24.33;22.00;;;;;17.94;61.21;102333.06;5081453;27;45524;-89
2021/09/01 03:52:16;;;;;;;;;31.25;27.50;;;;;17.91;60.89;102333.03;5081782;27;47213;-89
2021/09/01 03:54:41;;;;;;;;;29.25;27.00;;;;;18.07;61.08;102366.03;5100554;27;45442;-90
2021/09/01 03:57:07;;;;;;;;;28.33;21.33;;;;;18.06;61.13;102361.59;5101970;27;45466;-89
2021/09/01 03:59:32;;;;;;;;;27.00;22.67;;;;;17.97;60.90;102343.75;5101486;27;45419;-90
2021/09/01 04:01:58;;;;;;;;;20.00;17.50;;;;;17.94;61.10;102336.63;5082204;27;48171;-89
2021/09/01 04:04:23;;;;;;;;;30.00;26.00;;;;;17.97;60.97;102341.09;5101829;27;45195;-89
2021/09/01 04:06:49;;;;;;;;;26.00;24.00;;;;;17.98;61.09;102344.66;5102113;27;45317;-89
2021/09/01 04:09:14;;;;;;;;;24.67;22.33;;;;;18.09;61.11;102353.63;5101145;27;45153;-89
2021/09/01 04:11:40;;;;;;;;;28.67;23.00;;;;;17.96;60.87;102331.31;5102486;27;45277;-89
2021/09/01 04:14:05;;;;;;;;;25.67;22.00;;;;;18.01;60.88;102347.34;5115165;27;45312;-90
2021/09/01 04:16:31;;;;;;;;;25.25;24.25;;;;;17.96;60.92;102336.63;5117148;27;45289;-89
2021/09/01 04:18:56;;;;;;;;;29.25;27.75;;;;;18.11;60.95;102361.63;5121753;27;44782;-88
2021/09/01 04:21:21;;;;;;;;;29.00;26.33;;;;;17.99;60.82;102344.66;5122803;27;45289;-88
2021/09/01 04:23:47;;;;;;;;;32.33;23.67;;;;;17.97;60.62;102342.84;5116290;27;45190;-89
2021/09/01 04:26:12;;;;;;;;;29.50;25.50;;;;;17.99;61.00;102344.66;5115570;27;44771;-90
2021/09/01 04:28:38;;;;;;;;;26.25;25.00;;;;;17.91;61.05;102330.38;5119105;27;44748;-90
2021/09/01 04:31:03;;;;;;;;;30.00;24.00;;;;;18.09;60.95;102358.97;5124619;27;45402;-90
2021/09/01 04:33:29;;;;;;;;;26.00;25.00;;;;;18.10;60.80;102359.88;5099955;27;44761;-89
2021/09/01 04:35:54;;;;;;;;;26.25;25.00;;;;;18.04;61.16;102353.56;5105190;27;45380;-89
2021/09/01 04:38:20;;;;;;;;;27.00;24.00;;;;;17.91;60.92;102341.91;5102882;27;45424;-88
2021/09/01 04:40:45;;;;;;;;;26.75;22.50;;;;;17.92;60.69;102341.03;5108695;27;46305;-89
2021/09/01 04:43:10;;;;;;;;;29.75;27.00;;;;;18.04;60.92;102372.19;5096267;27;45276;-89
2021/09/01 04:45:36;;;;;;;;;28.75;27.25;;;;;17.91;60.93;102359.63;5098410;27;45271;-88
2021/09/01 04:48:01;;;;;;;;;30.75;25.50;;;;;17.90;60.84;102352.50;5113879;27;45368;-89
2021/09/01 04:50:27;;;;;;;;;24.00;22.50;;;;;18.02;61.02;102381.06;5103454;27;47027;-88
2021/09/01 04:52:53;;;;;;;;;26.00;23.00;;;;;17.88;61.26;102355.16;5102384;27;45350;-90
2021/09/01 04:55:18;;;;;;;;;31.25;25.75;;;;;17.93;61.03;102364.13;5103119;27;45270;-89
2021/09/01 04:57:44;;;;;;;;;29.00;22.67;;;;;18.00;60.88;102377.50;5088390;27;45340;-89
2021/09/01 05:00:11;;;;;;;;;28.25;23.25;;;;;18.05;61.01;102379.31;5105066;27;47204;-91
2021/09/01 05:02:37;;;;;;;;;23.67;23.33;;;;;18.06;60.81;102386.41;5083659;27;45701;-90
2021/09/01 05:05:03;;;;;;;;;22.25;22.25;;;;;17.98;60.91;102365.94;5099600;27;45219;-91
2021/09/01 05:07:29;;;;;;;;;27.00;25.00;;;;;17.86;60.76;102348.94;5099056;27;45443;-90
2021/09/01 05:09:54;;;;;;;;;27.33;24.33;;;;;18.03;60.89;102375.75;5096941;27;46955;-90
2021/09/01 05:12:20;;;;;;;;;26.67;24.00;;;;;17.97;61.07;102367.69;5097615;27;45541;-89
2021/09/01 05:14:45;;;;;;;;;23.67;22.33;;;;;17.98;61.16;102371.25;5085296;27;45332;-89
2021/09/01 05:17:10;;;;;;;;;27.50;24.75;;;;;17.94;61.10;102360.56;5110391;27;45377;-90
2021/09/01 05:19:37;;;;;;;;;30.00;25.25;;;;;18.04;60.96;102381.97;5089580;27;48166;-89
2021/09/01 05:22:06;;;;;;;;;25.75;25.25;;;;;17.88;60.79;102349.84;5103102;27;45412;-90
2021/09/01 05:24:56;;;;;;;;;26.50;24.25;;;;;17.87;60.80;102348.06;5099248;27;45343;-90
2021/09/01 05:27:23;;;;;;;;;28.25;26.75;;;;;18.00;60.76;102380.16;5098892;27;45279;-89
2021/09/01 05:29:50;;;;;;;;;27.67;21.67;;;;;17.93;60.72;102372.09;5099021;27;45410;-90
2021/09/01 05:32:27;;;;;;;;;27.25;24.75;;;;;17.98;60.57;102388.09;5100859;27;45469;-89
2021/09/01 05:34:55;;;;;;;;;28.00;24.00;;;;;17.91;60.63;102370.28;5083443;27;45289;-91
2021/09/01 05:37:22;;;;;;;;;24.00;23.00;;;;;17.89;60.93;102378.25;5099820;27;45397;-88
2021/09/01 05:39:51;;;;;;;;;27.25;24.00;;;;;17.83;60.75;102364.84;5103684;27;45649;-89
2021/09/01 05:42:22;;;;;;;;;28.00;26.00;;;;;17.82;60.81;102355.09;5103001;27;45280;-89
2021/09/01 05:44:48;;;;;;;;;23.75;22.25;;;;;17.98;61.40;102390.75;5104995;27;45318;-86
2021/09/01 05:47:15;;;;;;;;;23.00;22.33;;;;;18.02;60.90;102394.38;5105546;27;45332;-88
2021/09/01 05:49:43;;;;;;;;;23.00;21.33;;;;;18.05;60.59;102400.63;5104883;27;46293;-84
2021/09/01 05:52:09;;;;;;;;;33.00;27.50;;;;;17.91;60.54;102379.16;5115245;27;45493;-84
2021/09/01 05:54:36;;;;;;;;;26.75;24.00;;;;;18.05;60.35;102400.63;5114392;27;45274;-84
2021/09/01 05:57:07;;;;;;;;;22.67;22.00;;;;;18.09;61.00;102397.97;5115788;27;45365;-84
2021/09/01 05:59:53;;;;;;;;;24.00;22.00;;;;;18.11;60.61;102404.22;5116279;27;45737;-85
2021/09/01 06:02:22;;;;;;;;;27.50;22.50;;;;;18.13;61.16;102407.78;5113371;27;45321;-89
2021/09/01 06:04:48;;;;;;;;;28.25;26.50;;;;;18.15;60.92;102409.59;5116731;27;44799;-84
2021/09/01 06:07:17;;;;;;;;;23.50;22.25;;;;;18.15;60.50;102406.03;5117094;27;45363;-85
2021/09/01 06:09:46;;;;;;;;;29.00;24.25;;;;;18.14;60.57;102405.16;5116556;27;45862;-86
2021/09/01 06:12:21;;;;;;;;;25.25;23.75;;;;;18.18;60.30;102406.13;5106372;27;45340;-88
2021/09/01 06:14:47;;;;;;;;;26.67;22.00;;;;;18.13;60.35;102397.13;5102441;27;45407;-89
2021/09/01 06:17:13;;;;;;;;;25.33;24.67;;;;;18.19;60.42;102397.25;5101922;27;45580;-88
2021/09/01 06:19:39;;;;;;;;;22.67;21.33;;;;;18.19;60.52;102391.06;5083306;27;47740;-89
2021/09/01 06:22:05;;;;;;;;;24.67;22.00;;;;;18.15;60.32;102390.97;5083491;27;46022;-88
2021/09/01 06:24:34;;;;;;;;;29.75;25.00;;;;;18.12;60.27;102380.31;5084803;27;45319;-89
2021/09/01 06:27:01;;;;;;;;;27.00;22.50;;;;;18.20;60.21;102392.81;5100148;27;45422;-90
2021/09/01 06:29:27;;;;;;;;;26.75;23.25;;;;;18.08;60.16;102366.94;5083685;27;47862;-88
2021/09/01 06:31:54;;;;;;;;;26.25;24.00;;;;;18.03;60.27;102364.22;5083703;27;45444;-88
2021/09/01 06:34:19;;;;;;;;;26.50;24.25;;;;;18.20;60.23;102387.50;5084542;27;45383;-88
2021/09/01 06:36:45;;;;;;;;;22.25;21.75;;;;;18.04;60.10;102363.34;5102331;27;45218;-87
2021/09/01 06:39:11;;;;;;;;;27.25;23.25;;;;;18.05;60.20;102362.47;5083891;27;46390;-89
2021/09/01 06:41:37;;;;;;;;;30.00;24.00;;;;;18.07;60.19;102371.34;5083436;27;45361;-88
2021/09/01 06:44:02;;;;;;;;;21.25;20.25;;;;;18.15;60.26;102380.31;5102464;27;45369;-89
2021/09/01 06:46:28;;;;;;;;;26.00;23.25;;;;;18.06;60.24;102356.28;5101304;27;45533;-88
2021/09/01 06:48:53;;;;;;;;;26.25;22.00;;;;;18.08;60.16;102367.84;5101263;27;45453;-89
2021/09/01 06:51:19;;;;;;;;;24.00;23.00;;;;;18.16;60.24;102371.47;5102710;27;45372;-87
2021/09/01 06:53:44;;;;;;;;;26.00;23.25;;;;;18.28;60.40;102385.81;5106095;27;45342;-88
2021/09/01 06:56:11;;;;;;;;;25.50;24.75;;;;;18.24;60.33;102382.25;5111968;27;45479;-87
2021/09/01 06:58:36;;;;;;;;;23.50;23.25;;;;;18.23;60.21;102382.22;5090296;27;47253;-88
2021/09/01 07:01:03;;;;;;;;;34.00;26.75;;;;;18.26;60.00;102380.50;5105800;27;45540;-88
2021/09/01 07:03:28;;;;;;;;;30.75;26.50;;;;;18.30;60.10;102389.41;5105290;27;45439;-88
2021/09/01 07:05:54;;;;;;;;;28.00;22.00;;;;;18.37;60.21;102403.69;5105016;27;45456;-88
2021/09/01 07:08:22;;;;;;;;;27.25;25.25;;;;;18.29;60.09;102382.31;5105357;27;45878;-88
2021/09/01 07:10:47;;;;;;;;;28.50;22.25;;;;;18.33;60.02;102378.81;5109217;27;45259;-88
2021/09/01 07:13:14;;;;;;;;;27.00;23.25;;;;;18.44;59.99;102394.91;5118462;27;44671;-88
2021/09/01 07:15:40;;;;;;;;;25.00;21.25;;;;;18.46;60.14;102390.47;5119675;27;44755;-89
2021/09/01 07:18:06;;;;;;;;;24.00;23.25;;;;;18.44;60.07;102383.34;5091661;27;46505;-88
2021/09/01 07:20:32;;;;;;;;;26.50;23.50;;;;;18.40;60.10;102369.13;5105459;27;45301;-88
2021/09/01 07:22:57;;;;;;;;;23.75;22.50;;;;;18.42;60.01;102370.03;5104892;27;45496;-89
2021/09/01 07:25:23;;;;;;;;;26.25;23.00;;;;;18.33;60.02;102346.84;5086718;27;45501;-89
2021/09/01 07:27:49;;;;;;;;;25.50;23.00;;;;;18.44;59.79;102359.38;5085664;27;47194;-89
2021/09/01 07:30:14;;;;;;;;;23.00;22.00;;;;;18.49;59.95;102368.28;5102717;27;45379;-89
2021/09/01 07:32:40;;;;;;;;;24.00;21.00;;;;;18.40;60.22;102348.69;5100986;27;45639;-89
2021/09/01 07:35:05;;;;;;;;;24.50;22.00;;;;;18.56;60.12;102364.84;5101676;27;45299;-88
2021/09/01 07:37:31;;;;;;;;;25.25;22.50;;;;;18.53;59.87;102354.13;5081990;27;48155;-88
2021/09/01 07:39:57;;;;;;;;;24.25;19.75;;;;;18.70;59.78;102378.28;5100986;27;45965;-88
2021/09/01 07:42:23;;;;;;;;;26.50;21.50;;;;;18.61;59.38;102355.09;5099704;27;45228;-88
2021/09/01 07:44:49;;;;;;;;;25.00;21.67;;;;;18.61;59.43;102348.91;5100737;27;45479;-88
2021/09/01 07:47:14;;;;;;;;;24.75;21.75;;;;;18.79;59.29;102387.22;5081043;27;46239;-88
2021/09/01 07:49:41;;;;;;;;;23.67;20.33;;;;;18.79;59.29;102371.25;5082395;27;45716;-89
2021/09/01 07:52:07;;;;;;;;;24.50;21.50;;;;;18.88;59.21;102375.78;5082376;27;45338;-90
2021/09/01 07:54:33;;;;;;;;;26.25;22.00;;;;;18.75;59.33;102351.69;5099330;27;45459;-88
2021/09/01 07:56:59;;;;;;;;;28.75;22.50;;;;;18.81;59.07;102362.41;5098891;27;45263;-89
2021/09/01 07:59:24;;;;;;;;;25.00;21.67;;;;;18.94;59.26;102383.81;5082264;27;45550;-89
2021/09/01 08:01:50;;;;;;;;;25.33;21.67;;;;;18.91;59.43;102371.34;5081858;27;45510;-90
2021/09/01 08:04:15;;;;;;;;;24.67;20.67;;;;;19.03;59.08;102373.25;5082577;27;45620;-90
2021/09/01 08:06:41;;;;;;;;;21.00;20.50;;;;;19.07;59.22;102376.81;5100151;27;45351;-90
2021/09/01 08:09:06;;;;;;;;;25.00;20.33;;;;;19.02;59.15;102357.22;5082410;27;45829;-89
2021/09/01 08:11:31;;;;;;;;;27.33;23.33;;;;;19.18;58.52;102379.63;5100518;27;45271;-90
2021/09/01 08:13:57;;;;;;;;;25.33;22.67;;;;;19.10;58.56;102363.50;5101412;27;44712;-89
2021/09/01 08:16:22;;;;;;;;;23.67;21.67;;;;;19.13;58.68;102359.97;5101024;27;45491;-89
2021/09/01 08:18:48;;;;;;;;;26.00;21.00;;;;;19.20;58.69;102360.09;5102345;27;45373;-89
2021/09/01 08:21:13;;;;;;;;;22.75;19.50;;;;;19.36;58.61;102376.19;5101057;27;45377;-89
2021/09/01 08:23:39;;;;;;;;;26.50;19.50;;;;;19.44;58.24;102373.56;5102588;27;45455;-89
2021/09/01 08:26:04;;;;;;;;;25.67;23.33;;;;;19.32;58.57;102350.38;5102065;27;45904;-88
2021/09/01 08:28:30;;;;;;;;;22.67;22.33;;;;;19.44;58.19;102366.44;5101018;27;45400;-88
2021/09/01 08:30:55;;;;;;;;;27.33;26.33;;;;;19.54;58.31;102378.06;5100326;27;45423;-90
2021/09/01 08:33:21;;;;;;;;;30.00;25.67;;;;;19.58;57.88;102386.09;5100557;27;45376;-89
2021/09/01 08:35:46;;;;;;;;;31.67;23.33;;;;;19.51;57.77;102371.81;5100624;27;45269;-90
2021/09/01 08:38:12;;;;;;;;;23.00;22.00;;;;;19.63;58.10;102393.22;5099673;27;45352;-89
2021/09/01 08:40:38;;;;;;;;;29.50;26.75;;;;;19.58;57.92;102370.09;5100236;27;45495;-90
2021/09/01 08:43:05;;;;;;;;;27.33;26.00;;;;;19.63;58.10;102377.22;5100427;27;45424;-90
2021/09/01 08:45:30;;;;;;;;;28.67;25.33;;;;;19.58;57.95;102368.31;5100625;27;46181;-89
2021/09/01 08:47:56;;;;;;;;;27.67;24.67;;;;;19.78;57.57;102387.09;5100957;27;44751;-89
2021/09/01 08:50:22;;;;;;;;;23.67;17.67;;;;;19.83;57.50;102389.81;5098571;27;45373;-89
2021/09/01 08:52:47;;;;;;;;;29.50;27.00;;;;;19.88;57.32;102393.38;5080026;27;45208;-90
2021/09/01 08:55:14;;;;;;;;;27.33;26.33;;;;;19.85;57.48;102382.69;5098052;27;46575;-89
2021/09/01 08:57:41;;;;;;;;;31.00;27.67;;;;;19.93;57.06;102388.06;5098224;27;45385;-89
2021/09/01 09:00:09;;;;;;;;;28.33;22.33;;;;;20.10;57.28;102389.94;5098998;27;45337;-89
2021/09/01 09:02:34;;;;;;;;;29.33;25.67;;;;;20.12;57.26;102372.16;5098611;27;45404;-89
2021/09/01 09:05:08;;;;;;;;;27.00;23.33;;;;;20.25;56.80;102379.31;5100674;27;45384;-88
2021/09/01 09:07:53;;;;;;;;;25.33;22.00;;;;;20.39;56.59;102374.91;5086220;27;45416;-89
2021/09/01 09:10:35;;;;;;;;;30.25;23.00;;;;;20.60;56.50;102384.75;5105582;27;45240;-89
2021/09/01 09:13:03;;;;;;;;;27.67;25.33;;;;;20.70;56.21;102382.97;5105142;27;45261;-89
2021/09/01 09:15:29;;;;;;;;;25.33;22.33;;;;;20.77;55.84;102373.19;5086168;27;47552;-88
2021/09/01 09:17:54;;;;;;;;;20.67;20.00;;;;;20.93;55.78;102374.97;5104597;27;45232;-88
2021/09/01 09:20:32;;;;;;;;;28.00;21.33;;;;;21.19;55.46;102381.25;5105046;27;45313;-88
2021/09/01 09:22:58;;;;;;;;;24.67;22.00;;;;;21.29;55.05;102366.97;5102442;27;45382;-88
2021/09/01 09:25:30;;;;;;;;;22.67;21.33;;;;;21.52;54.90;102386.53;5101694;27;46041;-88
2021/09/01 09:28:02;;;;;;;;;28.00;22.00;;;;;21.67;54.96;102361.50;5083984;27;45240;-89
2021/09/01 09:30:40;;;;;;;;;20.33;20.33;;;;;21.92;54.41;102377.50;5103890;27;45322;-88
2021/09/01 09:33:08;;;;;;;;;21.33;19.00;;;;;22.19;53.99;102378.25;5103852;27;45272;-88
2021/09/01 09:35:48;;;;;;;;;25.67;20.33;;;;;22.31;53.85;102363.03;5081869;27;47464;-88
2021/09/01 09:38:15;;;;;;;;;21.67;17.67;;;;;22.41;53.19;102358.50;5100378;27;45447;-87
2021/09/01 09:40:41;;;;;;;;;20.67;20.00;;;;;22.54;52.88;102356.63;5100720;27;45429;-87
2021/09/01 09:43:18;;;;;;;;;24.00;21.33;;;;;22.72;53.02;102369.03;5082214;27;45307;-88
2021/09/01 09:45:45;;;;;;;;;20.33;20.00;;;;;22.93;52.95;102367.06;5100401;27;46435;-87
2021/09/01 09:48:11;;;;;;;;;23.00;19.33;;;;;22.92;52.25;102342.97;5100305;27;45252;-88
2021/09/01 09:50:37;;;;;;;;;21.00;17.67;;;;;23.32;51.47;102369.41;5100720;27;45522;-88
2021/09/01 09:53:02;;;;;;;;;19.33;18.33;;;;;23.58;49.82;102362.00;5082841;27;45362;-88
2021/09/01 09:55:28;;;;;;;;;22.67;20.00;;;;;23.68;50.83;102349.34;5082774;27;47010;-88
2021/09/01 09:57:56;;;;;;;;;23.67;19.67;;;;;23.85;50.12;102373.31;5081888;27;45381;-88
2021/09/01 10:00:26;;;;;;;;;25.00;18.00;;;;;24.01;50.18;102362.34;5100682;27;45259;-88
2021/09/01 10:02:52;;;;;;;;;21.67;20.33;;;;;24.33;50.20;102370.91;5100356;27;45371;-88
2021/09/01 10:05:23;;;;;;;;;21.33;18.33;;;;;24.56;49.30;102373.25;5082016;27;47614;-87
2021/09/01 10:07:49;;;;;;;;;21.33;19.33;;;;;24.79;49.32;102355.84;5100125;27;45340;-87
2021/09/01 10:10:16;;;;;;;;;27.33;23.33;;;;;25.26;47.99;102363.13;5100096;27;45440;-88
2021/09/01 10:12:45;;;;;;;;;25.67;19.67;;;;;25.49;48.42;102353.72;5099915;27;45452;-88
2021/09/01 10:15:17;;;;;;;;;21.00;17.33;;;;;25.68;47.64;102348.84;5099848;27;45628;-88
2021/09/01 10:17:46;;;;;;;;;16.00;16.00;;;;;26.00;47.21;102345.50;5098798;27;45395;-88
2021/09/01 10:20:19;;;;;;;;;22.33;19.00;;;;;26.46;46.56;102338.19;5100044;27;45218;-88
2021/09/01 10:23:00;;;;;;;;;18.33;16.67;;;;;27.53;46.16;102327.31;5100733;27;45353;-87
2021/09/01 10:25:36;;;;;;;;;19.00;18.33;;;;;28.77;43.74;102353.22;5081917;27;46425;-87
2021/09/01 10:28:20;;;;;;;;;23.33;18.67;;;;;29.07;42.51;102365.75;5082591;27;45538;-88
2021/09/01 10:31:14;;;;;;;;;19.67;19.00;;;;;29.82;41.99;102358.50;5101130;27;45515;-88
2021/09/01 10:33:46;;;;;;;;;18.00;16.67;;;;;30.73;40.69;102351.31;5100695;27;45437;-89
2021/09/01 10:36:26;;;;;;;;;16.33;15.67;;;;;31.63;40.57;102357.31;5097830;27;47532;-87
2021/09/01 10:38:56;;;;;;;;;16.67;16.67;;;;;32.38;37.89;102342.00;5099341;27;45835;-87
2021/09/01 10:41:27;;;;;;;;;18.00;18.00;;;;;32.96;37.60;102321.84;5099612;27;45415;-86
2021/09/01 10:44:08;;;;;;;;;21.00;16.33;;;;;33.77;36.30;102331.13;5099920;27;45403;-88
2021/09/01 10:46:53;;;;;;;;;17.67;14.67;;;;;34.45;35.00;102336.34;5080727;27;47153;-87
2021/09/01 10:49:26;;;;;;;;;19.00;15.33;;;;;34.96;34.24;102324.22;5099325;27;45245;-87
2021/09/01 10:51:56;;;;;;;;;14.33;14.33;;;;;35.49;32.99;102330.97;5099256;27;45527;-87
2021/09/01 10:54:28;;;;;;;;;14.00;14.00;;;;;35.98;32.81;102338.81;5099119;27;45391;-87
2021/09/01 10:56:54;;;;;;;;;15.33;15.33;;;;;36.37;31.77;102342.59;5080747;27;47249;-87
2021/09/01 10:59:30;;;;;;;;;15.33;12.33;;;;;36.69;30.93;102318.53;5099303;27;45439;-86
2021/09/01 11:02:14;;;;;;;;;12.33;12.33;;;;;36.88;30.11;102318.16;5099554;27;45393;-88
2021/09/01 11:04:57;;;;;;;;;17.33;15.00;;;;;36.58;29.51;102327.50;5099592;27;45336;-89
2021/09/01 11:07:26;;;;;;;;;12.00;10.67;;;;;35.95;30.24;102319.84;5099600;27;45739;-87
2021/09/01 11:09:54;;;;;;;;;14.00;14.00;;;;;35.32;29.27;102322.00;5099884;27;45361;-88
2021/09/01 11:12:20;;;;;;;;;16.33;14.67;;;;;34.86;29.93;102325.78;5101024;27;45423;-88
2021/09/01 11:14:48;;;;;;;;;16.33;14.67;;;;;34.38;30.47;102302.19;5102613;27;45310;-87
2021/09/01 11:17:19;;;;;;;;;14.33;13.00;;;;;34.05;30.88;102318.63;5084169;27;47563;-87
2021/09/01 11:19:47;;;;;;;;;17.33;14.33;;;;;33.69;31.48;102317.91;5083029;27;45254;-88
2021/09/01 11:22:17;;;;;;;;;16.67;15.00;;;;;33.40;31.39;102312.22;5100344;27;45227;-88
2021/09/01 11:24:51;;;;;;;;;14.00;12.00;;;;;33.23;31.82;102313.19;5100265;27;45416;-88
2021/09/01 11:27:19;;;;;;;;;21.00;12.67;;;;;32.99;31.99;102300.78;5082531;27;47322;-88
2021/09/01 11:29:45;;;;;;;;;13.67;13.67;;;;;32.82;31.82;102288.06;5101175;27;45335;-88
2021/09/01 11:32:19;;;;;;;;;13.33;11.67;;;;;32.78;31.94;102314.59;5102732;27;45179;-87
2021/09/01 11:34:47;;;;;;;;;17.33;14.67;;;;;32.65;31.69;102306.19;5105477;27;45186;-87
2021/09/01 11:37:14;;;;;;;;;11.67;11.33;;;;;32.54;32.46;102308.53;5084222;27;46154;-88
2021/09/01 11:39:50;;;;;;;;;14.67;14.67;;;;;32.42;32.41;102297.34;5101784;27;45447;-88